sensor_id;sensor_type;location;lat;lon;timestamp;pressure;altitude;pressure_sealevel;temperature;humidity
85343;BME280;75760;31.390;34.904;2024-03-06T00:00:55;94892.13;;;14.55;44.42
85343;BME280;75760;31.390;34.904;2024-03-06T00:03:20;94896.00;;;14.54;44.36
85343;BME280;75760;31.390;34.904;2024-03-06T00:05:47;94889.09;;;14.47;44.06
85343;BME280;75760;31.390;34.904;2024-03-06T00:08:13;94890.13;;;14.50;44.28
85343;BME280;75760;31.390;34.904;2024-03-06T00:10:38;94869.16;;;14.54;43.88
85343;BME280;75760;31.390;34.904;2024-03-06T00:13:04;94876.94;;;14.52;43.88
85343;BME280;75760;31.390;34.904;2024-03-06T00:15:30;94878.91;;;14.51;43.73
85343;BME280;75760;31.390;34.904;2024-03-06T00:17:55;94871.97;;;14.44;43.70
85343;BME280;75760;31.390;34.904;2024-03-06T00:20:21;94860.59;;;14.50;43.63
85343;BME280;75760;31.390;34.904;2024-03-06T00:22:47;94860.50;;;14.44;43.43
85343;BME280;75760;31.390;34.904;2024-03-06T00:25:12;94859.75;;;14.43;43.35
85343;BME280;75760;31.390;34.904;2024-03-06T00:27:38;94857.53;;;14.42;43.77
85343;BME280;75760;31.390;34.904;2024-03-06T00:30:04;94860.19;;;14.42;43.66
85343;BME280;75760;31.390;34.904;2024-03-06T00:32:29;94865.31;;;14.40;43.75
85343;BME280;75760;31.390;34.904;2024-03-06T00:34:55;94869.00;;;14.42;43.97
85343;BME280;75760;31.390;34.904;2024-03-06T00:37:21;94868.44;;;14.53;44.10
85343;BME280;75760;31.390;34.904;2024-03-06T00:39:46;94874.00;;;14.50;44.20
85343;BME280;75760;31.390;34.904;2024-03-06T00:42:12;94872.44;;;14.43;43.96
85343;BME280;75760;31.390;34.904;2024-03-06T00:44:39;94873.72;;;14.47;44.33
85343;BME280;75760;31.390;34.904;2024-03-06T00:47:04;94874.19;;;14.46;44.21
85343;BME280;75760;31.390;34.904;2024-03-06T00:49:30;94872.91;;;14.41;44.34
85343;BME280;75760;31.390;34.904;2024-03-06T00:51:56;94874.38;;;14.42;44.32
85343;BME280;75760;31.390;34.904;2024-03-06T00:54:22;94881.22;;;14.43;44.15
85343;BME280;75760;31.390;34.904;2024-03-06T00:56:47;94871.22;;;14.44;44.21
85343;BME280;75760;31.390;34.904;2024-03-06T00:59:13;94876.50;;;14.38;44.32
85343;BME280;75760;31.390;34.904;2024-03-06T01:01:38;94881.31;;;14.34;44.75
85343;BME280;75760;31.390;34.904;2024-03-06T01:04:04;94883.81;;;14.38;44.88
85343;BME280;75760;31.390;34.904;2024-03-06T01:06:29;94886.22;;;14.36;44.70
85343;BME280;75760;31.390;34.904;2024-03-06T01:08:56;94888.59;;;14.34;45.04
85343;BME280;75760;31.390;34.904;2024-03-06T01:11:23;94886.88;;;14.31;45.04
85343;BME280;75760;31.390;34.904;2024-03-06T01:13:49;94890.00;;;14.29;45.25
85343;BME280;75760;31.390;34.904;2024-03-06T01:16:14;94883.44;;;14.30;45.40
85343;BME280;75760;31.390;34.904;2024-03-06T01:18:40;94877.50;;;14.26;45.72
85343;BME280;75760;31.390;34.904;2024-03-06T01:21:06;94874.47;;;14.19;46.06
85343;BME280;75760;31.390;34.904;2024-03-06T01:23:31;94881.44;;;14.10;46.04
85343;BME280;75760;31.390;34.904;2024-03-06T01:25:57;94889.94;;;14.09;45.96
85343;BME280;75760;31.390;34.904;2024-03-06T01:28:22;94890.38;;;14.07;45.88
85343;BME280;75760;31.390;34.904;2024-03-06T01:30:48;94886.22;;;14.06;45.87
85343;BME280;75760;31.390;34.904;2024-03-06T01:33:14;94894.56;;;14.08;45.29
85343;BME280;75760;31.390;34.904;2024-03-06T01:35:39;94891.69;;;13.97;45.08
85343;BME280;75760;31.390;34.904;2024-03-06T01:38:05;94885.94;;;13.90;45.02
85343;BME280;75760;31.390;34.904;2024-03-06T01:40:31;94887.59;;;13.87;45.41
85343;BME280;75760;31.390;34.904;2024-03-06T01:42:56;94890.00;;;13.85;45.30
85343;BME280;75760;31.390;34.904;2024-03-06T01:45:22;94885.28;;;13.80;45.18
85343;BME280;75760;31.390;34.904;2024-03-06T01:47:48;94889.16;;;13.79;45.47
85343;BME280;75760;31.390;34.904;2024-03-06T01:50:15;94882.31;;;13.78;45.37
85343;BME280;75760;31.390;34.904;2024-03-06T01:52:41;94888.06;;;13.71;45.82
85343;BME280;75760;31.390;34.904;2024-03-06T01:55:08;94892.03;;;13.75;45.83
85343;BME280;75760;31.390;34.904;2024-03-06T01:57:34;94889.72;;;13.68;45.93
85343;BME280;75760;31.390;34.904;2024-03-06T02:00:02;94887.78;;;13.69;45.74
85343;BME280;75760;31.390;34.904;2024-03-06T02:02:30;94883.53;;;13.77;45.87
85343;BME280;75760;31.390;34.904;2024-03-06T02:04:55;94885.28;;;13.80;45.51
85343;BME280;75760;31.390;34.904;2024-03-06T02:07:24;94882.25;;;13.87;45.63
85343;BME280;75760;31.390;34.904;2024-03-06T02:09:49;94878.44;;;13.79;46.30
85343;BME280;75760;31.390;34.904;2024-03-06T02:12:15;94878.25;;;13.68;46.37
85343;BME280;75760;31.390;34.904;2024-03-06T02:14:41;94879.34;;;13.76;46.24
85343;BME280;75760;31.390;34.904;2024-03-06T02:17:07;94876.50;;;13.80;45.96
85343;BME280;75760;31.390;34.904;2024-03-06T02:19:43;94873.09;;;13.79;45.57
85343;BME280;75760;31.390;34.904;2024-03-06T02:22:11;94875.75;;;13.79;45.58
85343;BME280;75760;31.390;34.904;2024-03-06T02:24:38;94874.56;;;13.80;45.04
85343;BME280;75760;31.390;34.904;2024-03-06T02:27:04;94876.97;;;13.78;45.11
85343;BME280;75760;31.390;34.904;2024-03-06T02:29:31;94871.44;;;13.82;44.60
85343;BME280;75760;31.390;34.904;2024-03-06T02:31:58;94871.50;;;13.87;43.67
85343;BME280;75760;31.390;34.904;2024-03-06T02:34:24;94870.13;;;13.92;42.98
85343;BME280;75760;31.390;34.904;2024-03-06T02:36:51;94873.47;;;14.01;42.24
85343;BME280;75760;31.390;34.904;2024-03-06T02:39:17;94868.19;;;14.07;41.94
85343;BME280;75760;31.390;34.904;2024-03-06T02:41:43;94872.19;;;14.11;41.47
85343;BME280;75760;31.390;34.904;2024-03-06T02:44:09;94874.19;;;14.17;41.52
85343;BME280;75760;31.390;34.904;2024-03-06T02:46:34;94877.69;;;14.23;40.88
85343;BME280;75760;31.390;34.904;2024-03-06T02:49:00;94870.50;;;14.29;40.82
85343;BME280;75760;31.390;34.904;2024-03-06T02:51:26;94872.50;;;14.34;40.80
85343;BME280;75760;31.390;34.904;2024-03-06T02:53:51;94876.22;;;14.36;39.79
85343;BME280;75760;31.390;34.904;2024-03-06T02:56:18;94875.75;;;14.38;39.19
85343;BME280;75760;31.390;34.904;2024-03-06T02:58:45;94876.59;;;14.44;38.05
85343;BME280;75760;31.390;34.904;2024-03-06T03:01:10;94878.81;;;14.45;38.67
85343;BME280;75760;31.390;34.904;2024-03-06T03:03:36;94889.09;;;14.47;38.11
85343;BME280;75760;31.390;34.904;2024-03-06T03:06:02;94879.38;;;14.50;37.99
85343;BME280;75760;31.390;34.904;2024-03-06T03:08:28;94883.25;;;14.48;38.11
85343;BME280;75760;31.390;34.904;2024-03-06T03:10:53;94888.16;;;14.50;37.29
85343;BME280;75760;31.390;34.904;2024-03-06T03:13:20;94883.06;;;14.52;36.63
85343;BME280;75760;31.390;34.904;2024-03-06T03:15:47;94885.00;;;14.52;35.99
85343;BME280;75760;31.390;34.904;2024-03-06T03:18:13;94896.00;;;14.54;35.70
85343;BME280;75760;31.390;34.904;2024-03-06T03:20:39;94881.09;;;14.53;35.39
85343;BME280;75760;31.390;34.904;2024-03-06T03:23:04;94886.22;;;14.51;36.00
85343;BME280;75760;31.390;34.904;2024-03-06T03:25:31;94890.13;;;14.50;36.49
85343;BME280;75760;31.390;34.904;2024-03-06T03:27:58;94888.91;;;14.51;36.85
85343;BME280;75760;31.390;34.904;2024-03-06T03:30:24;94896.47;;;14.52;35.45
85343;BME280;75760;31.390;34.904;2024-03-06T03:32:50;94884.75;;;14.50;35.82
85343;BME280;75760;31.390;34.904;2024-03-06T03:35:15;94890.13;;;14.50;36.23
85343;BME280;75760;31.390;34.904;2024-03-06T03:37:42;94901.59;;;14.50;35.65
85343;BME280;75760;31.390;34.904;2024-03-06T03:40:09;94892.78;;;14.50;34.07
85343;BME280;75760;31.390;34.904;2024-03-06T03:42:38;94895.03;;;14.51;35.41
85343;BME280;75760;31.390;34.904;2024-03-06T03:45:04;94899.16;;;14.52;35.09
85343;BME280;75760;31.390;34.904;2024-03-06T03:47:30;94897.50;;;14.55;35.65
85343;BME280;75760;31.390;34.904;2024-03-06T03:49:55;94894.81;;;14.55;35.71
85343;BME280;75760;31.390;34.904;2024-03-06T03:52:21;94895.56;;;14.55;35.26
85343;BME280;75760;31.390;34.904;2024-03-06T03:54:47;94893.88;;;14.58;35.70
85343;BME280;75760;31.390;34.904;2024-03-06T03:57:13;94896.84;;;14.60;36.39
85343;BME280;75760;31.390;34.904;2024-03-06T03:59:39;94896.56;;;14.58;36.44
85343;BME280;75760;31.390;34.904;2024-03-06T04:02:06;94889.72;;;14.57;35.94
85343;BME280;75760;31.390;34.904;2024-03-06T04:04:32;94890.47;;;14.57;36.09
85343;BME280;75760;31.390;34.904;2024-03-06T04:06:59;94888.25;;;14.56;36.46
85343;BME280;75760;31.390;34.904;2024-03-06T04:09:27;94888.97;;;14.56;36.75
85343;BME280;75760;31.390;34.904;2024-03-06T04:11:53;94893.16;;;14.57;36.93
85343;BME280;75760;31.390;34.904;2024-03-06T04:14:18;94893.44;;;14.59;37.06
85343;BME280;75760;31.390;34.904;2024-03-06T04:16:47;94893.88;;;14.58;37.04
85343;BME280;75760;31.390;34.904;2024-03-06T04:19:13;94883.69;;;14.62;37.34
85343;BME280;75760;31.390;34.904;2024-03-06T04:21:42;94889.34;;;14.64;37.55
85343;BME280;75760;31.390;34.904;2024-03-06T04:24:08;94893.22;;;14.63;37.52
85343;BME280;75760;31.390;34.904;2024-03-06T04:26:33;94896.19;;;14.65;37.59
85343;BME280;75760;31.390;34.904;2024-03-06T04:28:59;94896.94;;;14.65;37.84
85343;BME280;75760;31.390;34.904;2024-03-06T04:31:24;94899.22;;;14.72;37.97
85343;BME280;75760;31.390;34.904;2024-03-06T04:33:50;94896.34;;;14.76;37.47
85343;BME280;75760;31.390;34.904;2024-03-06T04:36:16;94889.31;;;14.78;37.30
85343;BME280;75760;31.390;34.904;2024-03-06T04:38:42;94893.53;;;14.85;37.55
85343;BME280;75760;31.390;34.904;2024-03-06T04:41:08;94896.28;;;14.91;37.37
85343;BME280;75760;31.390;34.904;2024-03-06T04:43:34;94898.31;;;14.96;37.50
85343;BME280;75760;31.390;34.904;2024-03-06T04:46:00;94905.59;;;15.10;37.09
85343;BME280;75760;31.390;34.904;2024-03-06T04:48:26;94898.34;;;15.16;36.81
85343;BME280;75760;31.390;34.904;2024-03-06T04:50:51;94905.00;;;15.20;36.30
85343;BME280;75760;31.390;34.904;2024-03-06T04:53:18;94908.03;;;15.28;37.01
85343;BME280;75760;31.390;34.904;2024-03-06T04:55:45;94905.41;;;15.34;36.25
85343;BME280;75760;31.390;34.904;2024-03-06T04:58:12;94914.00;;;15.38;36.25
85343;BME280;75760;31.390;34.904;2024-03-06T05:00:38;94904.06;;;15.44;36.43
85343;BME280;75760;31.390;34.904;2024-03-06T05:03:03;94903.47;;;15.54;36.40
85343;BME280;75760;31.390;34.904;2024-03-06T05:05:29;94911.88;;;15.62;36.51
85343;BME280;75760;31.390;34.904;2024-03-06T05:07:55;94906.53;;;15.68;37.15
85343;BME280;75760;31.390;34.904;2024-03-06T05:10:21;94926.50;;;15.81;37.26
85343;BME280;75760;31.390;34.904;2024-03-06T05:12:47;94924.94;;;15.95;37.40
85343;BME280;75760;31.390;34.904;2024-03-06T05:15:13;94944.03;;;15.97;37.83
85343;BME280;75760;31.390;34.904;2024-03-06T05:17:39;94949.31;;;16.12;37.83
85343;BME280;75760;31.390;34.904;2024-03-06T05:20:06;94946.81;;;16.08;38.25
85343;BME280;75760;31.390;34.904;2024-03-06T05:22:31;94956.22;;;16.18;37.64
85343;BME280;75760;31.390;34.904;2024-03-06T05:24:57;94959.13;;;16.41;36.08
85343;BME280;75760;31.390;34.904;2024-03-06T05:27:24;94950.66;;;16.53;36.44
85343;BME280;75760;31.390;34.904;2024-03-06T05:29:50;94959.00;;;16.55;36.15
85343;BME280;75760;31.390;34.904;2024-03-06T05:32:16;94954.25;;;16.71;36.37
85343;BME280;75760;31.390;34.904;2024-03-06T05:34:42;94953.63;;;16.87;35.37
85343;BME280;75760;31.390;34.904;2024-03-06T05:37:07;94963.00;;;16.97;36.13
85343;BME280;75760;31.390;34.904;2024-03-06T05:39:33;94965.25;;;17.04;35.83
85343;BME280;75760;31.390;34.904;2024-03-06T05:42:05;94967.47;;;17.05;36.69
85343;BME280;75760;31.390;34.904;2024-03-06T05:44:31;94959.75;;;17.24;36.24
85343;BME280;75760;31.390;34.904;2024-03-06T05:47:01;94958.06;;;17.32;36.83
85343;BME280;75760;31.390;34.904;2024-03-06T05:49:27;94964.69;;;17.31;36.64
85343;BME280;75760;31.390;34.904;2024-03-06T05:51:54;94964.47;;;17.40;36.82
85343;BME280;75760;31.390;34.904;2024-03-06T05:54:21;94963.53;;;17.43;36.97
85343;BME280;75760;31.390;34.904;2024-03-06T05:56:50;94954.28;;;17.61;36.29
85343;BME280;75760;31.390;34.904;2024-03-06T05:59:17;94946.00;;;17.70;36.66
85343;BME280;75760;31.390;34.904;2024-03-06T06:01:43;94953.13;;;17.79;37.31
85343;BME280;75760;31.390;34.904;2024-03-06T06:04:09;94955.41;;;17.92;35.72
85343;BME280;75760;31.390;34.904;2024-03-06T06:06:35;94949.06;;;18.11;36.79
85343;BME280;75760;31.390;34.904;2024-03-06T06:09:01;94956.44;;;18.22;35.90
85343;BME280;75760;31.390;34.904;2024-03-06T06:11:30;94956.22;;;18.26;36.11
85343;BME280;75760;31.390;34.904;2024-03-06T06:13:56;94956.97;;;18.32;35.42
85343;BME280;75760;31.390;34.904;2024-03-06T06:16:21;94961.38;;;18.35;35.73
85343;BME280;75760;31.390;34.904;2024-03-06T06:18:47;94964.09;;;18.40;35.91
85343;BME280;75760;31.390;34.904;2024-03-06T06:21:12;94968.03;;;18.50;35.77
85343;BME280;75760;31.390;34.904;2024-03-06T06:23:38;94962.41;;;18.76;35.24
85343;BME280;75760;31.390;34.904;2024-03-06T06:26:04;94966.34;;;18.81;35.28
85343;BME280;75760;31.390;34.904;2024-03-06T06:28:30;94967.06;;;18.87;33.96
85343;BME280;75760;31.390;34.904;2024-03-06T06:30:56;94966.56;;;19.05;33.74
85343;BME280;75760;31.390;34.904;2024-03-06T06:33:21;94964.56;;;19.17;33.93
85343;BME280;75760;31.390;34.904;2024-03-06T06:35:47;94966.03;;;19.23;34.54
85343;BME280;75760;31.390;34.904;2024-03-06T06:38:13;94969.44;;;19.41;35.87
85343;BME280;75760;31.390;34.904;2024-03-06T06:40:38;94977.03;;;19.64;35.66
85343;BME280;75760;31.390;34.904;2024-03-06T06:43:06;94981.13;;;19.82;35.52
85343;BME280;75760;31.390;34.904;2024-03-06T06:45:31;94989.19;;;19.99;35.35
85343;BME280;75760;31.390;34.904;2024-03-06T06:47:57;94996.31;;;20.08;34.66
85343;BME280;75760;31.390;34.904;2024-03-06T06:50:23;94997.78;;;20.09;34.50
85343;BME280;75760;31.390;34.904;2024-03-06T06:52:51;94992.16;;;19.95;34.52
85343;BME280;75760;31.390;34.904;2024-03-06T06:55:17;94992.13;;;20.01;33.69
85343;BME280;75760;31.390;34.904;2024-03-06T06:57:43;94988.69;;;20.00;32.37
85343;BME280;75760;31.390;34.904;2024-03-06T07:00:09;94994.63;;;19.99;32.34
85343;BME280;75760;31.390;34.904;2024-03-06T07:02:41;94994.16;;;19.89;32.91
85343;BME280;75760;31.390;34.904;2024-03-06T07:05:08;94989.69;;;19.97;32.00
85343;BME280;75760;31.390;34.904;2024-03-06T07:07:34;94983.19;;;20.17;31.46
85343;BME280;75760;31.390;34.904;2024-03-06T07:10:00;94992.06;;;20.12;32.21
85343;BME280;75760;31.390;34.904;2024-03-06T07:12:25;94981.97;;;20.13;31.02
85343;BME280;75760;31.390;34.904;2024-03-06T07:14:51;94991.72;;;20.32;30.57
85343;BME280;75760;31.390;34.904;2024-03-06T07:17:17;94989.25;;;19.88;30.98
85343;BME280;75760;31.390;34.904;2024-03-06T07:19:42;94989.13;;;20.10;30.49
85343;BME280;75760;31.390;34.904;2024-03-06T07:22:08;94995.03;;;20.14;30.89
85343;BME280;75760;31.390;34.904;2024-03-06T07:24:34;94994.34;;;20.02;31.56
85343;BME280;75760;31.390;34.904;2024-03-06T07:26:59;95000.16;;;20.23;30.60
85343;BME280;75760;31.390;34.904;2024-03-06T07:29:27;94997.34;;;20.46;30.36
85343;BME280;75760;31.390;34.904;2024-03-06T07:31:52;94995.06;;;20.55;30.01
85343;BME280;75760;31.390;34.904;2024-03-06T07:34:19;94997.13;;;20.38;29.98
85343;BME280;75760;31.390;34.904;2024-03-06T07:36:47;94998.81;;;20.47;29.54
85343;BME280;75760;31.390;34.904;2024-03-06T07:39:15;95001.91;;;20.15;29.46
85343;BME280;75760;31.390;34.904;2024-03-06T07:41:41;94999.84;;;20.32;30.60
85343;BME280;75760;31.390;34.904;2024-03-06T07:44:07;95000.31;;;20.42;30.79
85343;BME280;75760;31.390;34.904;2024-03-06T07:46:34;95002.13;;;20.23;30.92
85343;BME280;75760;31.390;34.904;2024-03-06T07:49:00;94999.50;;;20.53;31.70
85343;BME280;75760;31.390;34.904;2024-03-06T07:51:28;94993.41;;;20.77;31.27
85343;BME280;75760;31.390;34.904;2024-03-06T07:53:55;94992.97;;;20.72;31.06
85343;BME280;75760;31.390;34.904;2024-03-06T07:56:21;95001.56;;;20.77;32.41
85343;BME280;75760;31.390;34.904;2024-03-06T07:58:46;94998.00;;;20.93;31.33
85343;BME280;75760;31.390;34.904;2024-03-06T08:01:12;95001.75;;;20.84;32.53
85343;BME280;75760;31.390;34.904;2024-03-06T08:03:41;95003.72;;;20.84;33.14
85343;BME280;75760;31.390;34.904;2024-03-06T08:06:08;94998.31;;;20.84;33.00
85343;BME280;75760;31.390;34.904;2024-03-06T08:08:35;94995.28;;;20.93;33.38
85343;BME280;75760;31.390;34.904;2024-03-06T08:11:01;94992.88;;;20.84;33.43
85343;BME280;75760;31.390;34.904;2024-03-06T08:13:27;94988.47;;;20.81;34.40
85343;BME280;75760;31.390;34.904;2024-03-06T08:15:53;94988.53;;;20.75;34.53
85343;BME280;75760;31.390;34.904;2024-03-06T08:18:18;94989.03;;;20.73;34.20
85343;BME280;75760;31.390;34.904;2024-03-06T08:20:44;94984.13;;;20.96;34.88
85343;BME280;75760;31.390;34.904;2024-03-06T08:23:10;94989.16;;;20.87;34.97
85343;BME280;75760;31.390;34.904;2024-03-06T08:25:35;94992.41;;;20.80;35.57
85343;BME280;75760;31.390;34.904;2024-03-06T08:28:01;94997.50;;;20.89;36.09
85343;BME280;75760;31.390;34.904;2024-03-06T08:30:31;94993.50;;;20.95;35.51
85343;BME280;75760;31.390;34.904;2024-03-06T08:32:56;94988.06;;;21.01;36.07
85343;BME280;75760;31.390;34.904;2024-03-06T08:35:22;94982.50;;;21.18;35.60
85343;BME280;75760;31.390;34.904;2024-03-06T08:37:49;94981.88;;;21.00;36.16
85343;BME280;75760;31.390;34.904;2024-03-06T08:40:16;94994.72;;;21.00;36.92
85343;BME280;75760;31.390;34.904;2024-03-06T08:42:49;94993.63;;;20.84;37.91
85343;BME280;75760;31.390;34.904;2024-03-06T08:45:15;94983.03;;;20.81;37.81
85343;BME280;75760;31.390;34.904;2024-03-06T08:47:42;94989.78;;;20.98;37.86
85343;BME280;75760;31.390;34.904;2024-03-06T08:50:09;94993.06;;;20.91;40.14
85343;BME280;75760;31.390;34.904;2024-03-06T08:52:36;94994.34;;;20.85;40.77
85343;BME280;75760;31.390;34.904;2024-03-06T08:55:02;94992.50;;;20.98;41.65
85343;BME280;75760;31.390;34.904;2024-03-06T08:57:34;94989.16;;;20.87;41.97
85343;BME280;75760;31.390;34.904;2024-03-06T09:00:00;94985.66;;;20.92;42.68
85343;BME280;75760;31.390;34.904;2024-03-06T09:02:26;94982.34;;;20.74;44.27
85343;BME280;75760;31.390;34.904;2024-03-06T09:04:52;94980.34;;;21.05;43.70
85343;BME280;75760;31.390;34.904;2024-03-06T09:07:18;94981.63;;;21.04;44.03
85343;BME280;75760;31.390;34.904;2024-03-06T09:09:45;94982.13;;;21.02;45.56
85343;BME280;75760;31.390;34.904;2024-03-06T09:12:11;94981.81;;;21.06;44.43
85343;BME280;75760;31.390;34.904;2024-03-06T09:14:40;94980.31;;;21.10;44.39
85343;BME280;75760;31.390;34.904;2024-03-06T09:17:06;94984.72;;;21.19;44.60
85343;BME280;75760;31.390;34.904;2024-03-06T09:19:34;94982.66;;;21.25;44.75
85343;BME280;75760;31.390;34.904;2024-03-06T09:22:00;94986.31;;;21.33;44.98
85343;BME280;75760;31.390;34.904;2024-03-06T09:24:28;94983.69;;;21.22;45.85
85343;BME280;75760;31.390;34.904;2024-03-06T09:26:54;94982.47;;;21.23;46.72
85343;BME280;75760;31.390;34.904;2024-03-06T09:29:20;94989.47;;;21.37;46.80
85343;BME280;75760;31.390;34.904;2024-03-06T09:31:46;94990.03;;;21.30;47.41
85343;BME280;75760;31.390;34.904;2024-03-06T09:34:15;94989.41;;;21.43;47.85
85343;BME280;75760;31.390;34.904;2024-03-06T09:36:45;94990.38;;;21.45;46.49
85343;BME280;75760;31.390;34.904;2024-03-06T09:39:11;94989.47;;;21.37;47.01
85343;BME280;75760;31.390;34.904;2024-03-06T09:41:37;94995.91;;;21.34;48.62
85343;BME280;75760;31.390;34.904;2024-03-06T09:44:06;94988.22;;;21.38;48.44
85343;BME280;75760;31.390;34.904;2024-03-06T09:46:33;94990.03;;;21.30;48.51
85343;BME280;75760;31.390;34.904;2024-03-06T09:49:01;94979.75;;;21.23;44.90
85343;BME280;75760;31.390;34.904;2024-03-06T09:51:27;94984.94;;;21.21;45.38
85343;BME280;75760;31.390;34.904;2024-03-06T09:53:53;94979.00;;;21.23;44.26
85343;BME280;75760;31.390;34.904;2024-03-06T09:56:19;94982.22;;;21.21;44.79
85343;BME280;75760;31.390;34.904;2024-03-06T09:58:47;94972.38;;;20.88;46.58
85343;BME280;75760;31.390;34.904;2024-03-06T10:01:14;94975.56;;;20.92;47.05
85343;BME280;75760;31.390;34.904;2024-03-06T10:03:40;94969.81;;;21.01;46.55
85343;BME280;75760;31.390;34.904;2024-03-06T10:06:07;94977.47;;;20.97;49.10
85343;BME280;75760;31.390;34.904;2024-03-06T10:08:33;94979.66;;;20.74;49.45
85343;BME280;75760;31.390;34.904;2024-03-06T10:11:00;94975.59;;;20.57;49.77
85343;BME280;75760;31.390;34.904;2024-03-06T10:13:25;94958.34;;;20.54;50.80
85343;BME280;75760;31.390;34.904;2024-03-06T10:15:59;94967.34;;;20.68;50.84
85343;BME280;75760;31.390;34.904;2024-03-06T10:18:29;94955.56;;;20.65;50.58
85343;BME280;75760;31.390;34.904;2024-03-06T10:20:55;94961.50;;;20.58;48.96
85343;BME280;75760;31.390;34.904;2024-03-06T10:23:21;94954.19;;;20.83;49.61
85343;BME280;75760;31.390;34.904;2024-03-06T10:25:48;94953.88;;;20.87;47.36
85343;BME280;75760;31.390;34.904;2024-03-06T10:28:18;94949.03;;;20.80;46.58
85343;BME280;75760;31.390;34.904;2024-03-06T10:30:44;94951.06;;;20.73;46.61
85343;BME280;75760;31.390;34.904;2024-03-06T10:33:14;94945.88;;;20.76;45.88
85343;BME280;75760;31.390;34.904;2024-03-06T10:35:42;94947.88;;;20.69;44.94
85343;BME280;75760;31.390;34.904;2024-03-06T10:38:09;94942.44;;;20.69;45.94
85343;BME280;75760;31.390;34.904;2024-03-06T10:40:41;94939.25;;;20.71;46.37
85343;BME280;75760;31.390;34.904;2024-03-06T10:43:08;94936.34;;;20.63;45.91
85343;BME280;75760;31.390;34.904;2024-03-06T10:48:08;94940.75;;;20.66;45.63
85343;BME280;75760;31.390;34.904;2024-03-06T10:50:39;94940.16;;;20.79;45.55
85343;BME280;75760;31.390;34.904;2024-03-06T10:53:08;94938.19;;;20.80;44.42
85343;BME280;75760;31.390;34.904;2024-03-06T10:55:35;94938.47;;;21.00;45.51
85343;BME280;75760;31.390;34.904;2024-03-06T10:58:06;94942.88;;;21.33;43.56
85343;BME280;75760;31.390;34.904;2024-03-06T11:00:47;94944.16;;;21.27;42.99
85343;BME280;75760;31.390;34.904;2024-03-06T11:03:13;94939.56;;;21.16;44.26
85343;BME280;75760;31.390;34.904;2024-03-06T11:05:43;94941.13;;;21.06;43.15
85343;BME280;75760;31.390;34.904;2024-03-06T11:08:13;94938.75;;;20.97;44.19
85343;BME280;75760;31.390;34.904;2024-03-06T11:10:41;94931.41;;;20.92;44.53
85343;BME280;75760;31.390;34.904;2024-03-06T11:15:45;94932.47;;;20.83;46.56
85343;BME280;75760;31.390;34.904;2024-03-06T11:23:33;94928.25;;;20.58;49.75
85343;BME280;75760;31.390;34.904;2024-03-06T11:26:05;94919.25;;;20.44;49.70
85343;BME280;75760;31.390;34.904;2024-03-06T11:28:33;94920.53;;;20.32;50.15
85343;BME280;75760;31.390;34.904;2024-03-06T11:31:04;94913.69;;;20.25;50.66
85343;BME280;75760;31.390;34.904;2024-03-06T11:33:36;94912.09;;;20.47;50.17
85343;BME280;75760;31.390;34.904;2024-03-06T11:39:02;94912.97;;;20.19;51.96
85343;BME280;75760;31.390;34.904;2024-03-06T11:44:02;94911.72;;;20.26;51.50
85343;BME280;75760;31.390;34.904;2024-03-06T11:46:44;94909.69;;;19.91;51.68
85343;BME280;75760;31.390;34.904;2024-03-06T11:49:18;94914.75;;;20.11;51.91
85343;BME280;75760;31.390;34.904;2024-03-06T11:51:46;94905.31;;;20.23;51.94
85343;BME280;75760;31.390;34.904;2024-03-06T11:54:12;94904.19;;;20.08;52.14
85343;BME280;75760;31.390;34.904;2024-03-06T11:56:43;94901.50;;;20.08;53.48
85343;BME280;75760;31.390;34.904;2024-03-06T11:59:10;94900.63;;;19.88;54.81
85343;BME280;75760;31.390;34.904;2024-03-06T12:01:36;94910.13;;;20.00;54.51
85343;BME280;75760;31.390;34.904;2024-03-06T12:04:03;94903.78;;;19.92;55.61
85343;BME280;75760;31.390;34.904;2024-03-06T12:06:32;94903.66;;;19.74;56.06
85343;BME280;75760;31.390;34.904;2024-03-06T12:08:58;94904.66;;;19.65;57.48
85343;BME280;75760;31.390;34.904;2024-03-06T12:11:24;94905.19;;;19.58;57.82
85343;BME280;75760;31.390;34.904;2024-03-06T12:13:54;94902.59;;;19.88;55.81
85343;BME280;75760;31.390;34.904;2024-03-06T12:16:21;94896.38;;;19.98;54.21
85343;BME280;75760;31.390;34.904;2024-03-06T12:18:52;94902.81;;;19.90;52.41
85343;BME280;75760;31.390;34.904;2024-03-06T12:21:21;94902.75;;;20.01;53.20
85343;BME280;75760;31.390;34.904;2024-03-06T12:23:48;94905.75;;;19.97;54.16
85343;BME280;75760;31.390;34.904;2024-03-06T12:26:13;94896.69;;;19.84;53.45
85343;BME280;75760;31.390;34.904;2024-03-06T12:28:39;94907.22;;;19.93;51.76
85343;BME280;75760;31.390;34.904;2024-03-06T12:31:06;94901.03;;;19.57;54.16
85343;BME280;75760;31.390;34.904;2024-03-06T12:33:33;94915.78;;;19.45;54.14
85343;BME280;75760;31.390;34.904;2024-03-06T12:38:29;94906.44;;;19.57;49.07
85343;BME280;75760;31.390;34.904;2024-03-06T12:40:55;94900.72;;;19.66;51.16
85343;BME280;75760;31.390;34.904;2024-03-06T12:43:20;94908.31;;;19.73;52.64
85343;BME280;75760;31.390;34.904;2024-03-06T12:45:46;94906.69;;;19.53;49.92
85343;BME280;75760;31.390;34.904;2024-03-06T12:48:11;94905.47;;;19.54;47.85
85343;BME280;75760;31.390;34.904;2024-03-06T12:50:38;94900.06;;;19.49;48.95
85343;BME280;75760;31.390;34.904;2024-03-06T12:53:03;94904.97;;;19.45;45.09
85343;BME280;75760;31.390;34.904;2024-03-06T12:55:32;94894.88;;;19.45;41.52
85343;BME280;75760;31.390;34.904;2024-03-06T12:57:58;94904.75;;;19.48;44.69
85343;BME280;75760;31.390;34.904;2024-03-06T13:00:23;94899.88;;;19.30;47.87
85343;BME280;75760;31.390;34.904;2024-03-06T13:02:50;94901.06;;;19.35;50.83
85343;BME280;75760;31.390;34.904;2024-03-06T13:05:18;94894.91;;;19.51;50.49